createdAt,value
2024-02-29T00:00:02.453Z,5.57
2024-02-29T00:02:32.400Z,5.54
2024-02-29T00:05:00.552Z,5.51
2024-02-29T00:07:28.532Z,5.49
2024-02-29T00:09:56.427Z,5.48
2024-02-29T00:12:24.689Z,5.46
2024-02-29T00:14:52.681Z,5.44
2024-02-29T00:17:22.014Z,5.44
2024-02-29T00:19:49.901Z,5.43
2024-02-29T00:22:17.779Z,5.42
2024-02-29T00:24:45.704Z,5.43
2024-02-29T00:27:13.532Z,5.43
2024-02-29T00:29:43.718Z,5.43
2024-02-29T00:32:12.030Z,5.41
2024-02-29T00:34:39.902Z,5.39
2024-02-29T00:37:08.085Z,5.36
2024-02-29T00:39:36.263Z,5.33
2024-02-29T00:42:04.364Z,5.29
2024-02-29T00:44:32.263Z,5.24
2024-02-29T00:47:00.503Z,5.20
2024-02-29T00:49:28.557Z,5.20
2024-02-29T00:51:56.642Z,5.18
2024-02-29T00:54:25.458Z,5.17
2024-02-29T00:56:53.412Z,5.16
2024-02-29T00:59:21.656Z,5.16
2024-02-29T01:01:49.774Z,5.15
2024-02-29T01:04:18.061Z,5.13
2024-02-29T01:06:46.111Z,5.10
2024-02-29T01:09:14.052Z,5.08
2024-02-29T01:11:42.485Z,5.05
2024-02-29T01:14:10.393Z,5.04
2024-02-29T01:16:38.170Z,5.05
2024-02-29T01:19:07.245Z,5.05
2024-02-29T01:21:35.534Z,5.02
2024-02-29T01:24:03.436Z,5.01
2024-02-29T01:26:32.399Z,5.05
2024-02-29T01:29:00.389Z,5.03
2024-02-29T01:31:28.405Z,5.05
2024-02-29T01:33:56.418Z,5.04
2024-02-29T01:36:24.418Z,5.02
2024-02-29T01:38:52.529Z,5.01
2024-02-29T01:41:20.637Z,5.01
2024-02-29T01:43:55.100Z,4.99
2024-02-29T01:46:24.982Z,5.00
2024-02-29T01:48:55.415Z,4.98
2024-02-29T01:51:24.840Z,4.97
2024-02-29T01:53:53.227Z,4.95
2024-02-29T01:56:22.443Z,4.95
2024-02-29T01:58:50.436Z,4.96
2024-02-29T02:01:19.595Z,4.97
2024-02-29T02:03:48.392Z,4.98
2024-02-29T02:06:16.486Z,4.97
2024-02-29T02:08:46.364Z,4.97
2024-02-29T02:11:14.462Z,4.97
2024-02-29T02:13:42.582Z,4.96
2024-02-29T02:16:11.629Z,4.96
2024-02-29T02:18:39.745Z,4.93
2024-02-29T02:21:07.850Z,4.91
2024-02-29T02:23:35.746Z,4.89
2024-02-29T02:26:03.895Z,4.87
2024-02-29T02:28:31.929Z,4.89
2024-02-29T02:30:59.826Z,4.89
2024-02-29T02:33:27.632Z,4.90
2024-02-29T02:35:56.486Z,4.91
2024-02-29T02:38:24.597Z,4.91
2024-02-29T02:40:52.360Z,4.91
2024-02-29T02:43:20.468Z,4.91
2024-02-29T02:45:48.438Z,4.92
2024-02-29T02:48:16.480Z,4.92
2024-02-29T02:50:44.599Z,4.93
2024-02-29T02:53:12.691Z,4.93
2024-02-29T02:55:40.637Z,4.94
2024-02-29T02:58:09.105Z,4.93
2024-02-29T03:00:37.571Z,4.91
2024-02-29T03:03:05.639Z,4.93
2024-02-29T03:05:33.786Z,4.92
2024-02-29T03:08:04.092Z,4.92
2024-02-29T03:10:32.179Z,4.93
2024-02-29T03:13:00.057Z,4.90
2024-02-29T03:15:28.067Z,4.89
2024-02-29T03:17:56.814Z,4.89
2024-02-29T03:20:25.194Z,4.89
2024-02-29T03:22:53.058Z,4.86
2024-02-29T03:25:21.057Z,4.82
2024-02-29T03:27:50.832Z,4.82
2024-02-29T03:30:18.917Z,4.82
2024-02-29T03:32:46.732Z,4.81
2024-02-29T03:35:14.746Z,4.81
2024-02-29T03:37:42.549Z,4.80
2024-02-29T03:40:11.563Z,4.79
2024-02-29T03:42:40.205Z,4.77
2024-02-29T03:45:08.781Z,4.77
2024-02-29T03:47:36.942Z,4.76
2024-02-29T03:50:05.554Z,4.76
2024-02-29T03:52:33.507Z,4.76
2024-02-29T03:55:01.381Z,4.73
2024-02-29T03:57:29.395Z,4.71
2024-02-29T03:59:57.857Z,4.69
2024-02-29T04:02:25.755Z,4.66
2024-02-29T04:04:54.954Z,4.62
2024-02-29T04:07:22.810Z,4.59
2024-02-29T04:09:52.640Z,4.54
2024-02-29T04:12:20.515Z,4.52
2024-02-29T04:14:48.473Z,4.50
2024-02-29T04:17:16.332Z,4.50
2024-02-29T04:19:46.092Z,4.47
2024-02-29T04:22:17.438Z,4.46
2024-02-29T04:24:45.406Z,4.43
2024-02-29T04:27:13.334Z,4.44
2024-02-29T04:29:41.372Z,4.44
2024-02-29T04:32:09.286Z,4.42
2024-02-29T04:34:37.461Z,4.41
2024-02-29T04:37:05.771Z,4.39
2024-02-29T04:39:33.705Z,4.36
2024-02-29T04:42:01.657Z,4.36
2024-02-29T04:44:29.485Z,4.34
2024-02-29T04:46:57.473Z,4.30
2024-02-29T04:49:25.315Z,4.27
2024-02-29T04:51:54.163Z,4.23
2024-02-29T04:54:22.218Z,4.20
2024-02-29T04:56:50.153Z,4.16
2024-02-29T04:59:17.978Z,4.13
2024-02-29T05:01:46.232Z,4.11
2024-02-29T05:04:14.449Z,4.04
2024-02-29T05:06:42.462Z,4.01
2024-02-29T05:09:10.543Z,3.95
2024-02-29T05:11:39.882Z,3.93
2024-02-29T05:14:10.119Z,3.90
2024-02-29T05:16:38.318Z,3.88
2024-02-29T05:19:06.241Z,3.88
2024-02-29T05:21:34.327Z,3.89
2024-02-29T05:24:02.281Z,3.94
2024-02-29T05:26:30.171Z,4.00
2024-02-29T05:28:57.970Z,4.10
2024-02-29T05:31:25.865Z,4.25
2024-02-29T05:33:54.002Z,4.42
2024-02-29T05:36:23.570Z,4.54
2024-02-29T05:38:51.647Z,4.69
2024-02-29T05:41:19.579Z,4.96
2024-02-29T05:43:47.316Z,5.31
2024-02-29T05:46:16.091Z,5.63
2024-02-29T05:48:44.204Z,5.88
2024-02-29T05:51:12.546Z,6.15
2024-02-29T05:53:40.821Z,6.45
2024-02-29T05:56:08.671Z,6.81
2024-02-29T05:58:36.804Z,7.10
2024-02-29T06:01:05.141Z,7.37
2024-02-29T06:03:33.198Z,7.64
2024-02-29T06:06:01.263Z,7.98
2024-02-29T06:08:29.765Z,8.35
2024-02-29T06:10:57.957Z,8.78
2024-02-29T06:13:25.968Z,9.15
2024-02-29T06:15:53.709Z,9.44
2024-02-29T06:18:22.440Z,9.76
2024-02-29T06:20:50.391Z,10.04
2024-02-29T06:23:19.274Z,10.25
2024-02-29T06:25:48.908Z,10.52
2024-02-29T06:28:19.503Z,10.72
2024-02-29T06:30:47.423Z,10.88
2024-02-29T06:33:15.509Z,10.88
2024-02-29T06:35:43.703Z,10.74
2024-02-29T06:38:15.669Z,10.72
2024-02-29T06:40:43.924Z,10.78
2024-02-29T06:43:11.878Z,10.89
2024-02-29T06:45:45.061Z,10.98
2024-02-29T06:48:13.000Z,11.05
2024-02-29T06:50:40.702Z,11.07
2024-02-29T06:53:08.517Z,11.24
2024-02-29T06:55:37.453Z,11.43
2024-02-29T06:58:06.306Z,11.60
2024-02-29T07:00:34.731Z,11.55
2024-02-29T07:03:02.546Z,11.66
2024-02-29T07:05:33.373Z,11.75
2024-02-29T07:08:01.955Z,11.88
2024-02-29T07:10:30.822Z,12.02
2024-02-29T07:12:59.030Z,12.06
2024-02-29T07:15:27.161Z,12.18
2024-02-29T07:17:55.004Z,12.19
2024-02-29T07:20:25.856Z,12.20
2024-02-29T07:22:53.390Z,12.35
2024-02-29T07:25:21.519Z,12.51
2024-02-29T07:27:49.981Z,12.49
2024-02-29T07:30:19.151Z,12.57
2024-02-29T07:32:47.334Z,12.73
2024-02-29T07:35:17.009Z,12.82
2024-02-29T07:37:45.477Z,12.81
2024-02-29T07:40:13.973Z,12.92
2024-02-29T07:42:41.854Z,12.97
2024-02-29T07:45:10.408Z,12.95
2024-02-29T07:47:40.703Z,12.96
2024-02-29T07:50:10.277Z,13.10
2024-02-29T07:52:38.048Z,13.36
2024-02-29T07:55:06.314Z,13.60
2024-02-29T07:57:35.571Z,13.85
2024-02-29T08:00:04.968Z,14.05
2024-02-29T08:02:34.666Z,14.18
2024-02-29T08:05:02.772Z,14.31
2024-02-29T08:07:31.145Z,14.51
2024-02-29T08:09:58.898Z,14.69
2024-02-29T08:12:27.081Z,14.83
2024-02-29T08:14:54.878Z,14.98
2024-02-29T08:17:26.048Z,15.18
2024-02-29T08:19:54.485Z,15.44
2024-02-29T08:22:22.545Z,15.65
2024-02-29T08:24:50.461Z,15.79
2024-02-29T08:27:18.404Z,15.85
2024-02-29T08:29:46.295Z,15.96
2024-02-29T08:32:15.894Z,16.11
2024-02-29T08:34:45.096Z,16.28
2024-02-29T08:37:13.140Z,16.44
2024-02-29T08:39:41.734Z,16.63
2024-02-29T08:42:10.333Z,16.82
2024-02-29T08:44:43.727Z,16.99
2024-02-29T08:47:11.596Z,17.15
2024-02-29T08:49:39.741Z,17.29
2024-02-29T08:52:08.530Z,17.36
2024-02-29T08:54:36.948Z,17.46
2024-02-29T08:57:06.764Z,17.66
2024-02-29T08:59:35.224Z,17.86
2024-02-29T09:02:03.475Z,18.10
2024-02-29T09:04:31.569Z,18.30
2024-02-29T09:06:59.504Z,18.43
2024-02-29T09:09:30.462Z,18.41
2024-02-29T09:11:58.554Z,18.55
2024-02-29T09:14:26.591Z,18.59
2024-02-29T09:16:54.592Z,18.58
2024-02-29T09:19:22.683Z,18.59
2024-02-29T09:21:50.753Z,18.47
2024-02-29T09:24:18.812Z,18.25
2024-02-29T09:26:46.732Z,18.06
2024-02-29T09:29:14.652Z,17.93
2024-02-29T09:31:44.204Z,17.86
2024-02-29T09:34:12.437Z,17.75
2024-02-29T09:36:40.373Z,17.68
2024-02-29T09:39:08.361Z,17.63
2024-02-29T09:41:58.842Z,17.53
2024-02-29T09:44:09.421Z,17.43
2024-02-29T09:46:39.212Z,17.35
2024-02-29T09:49:08.663Z,17.32
2024-02-29T09:51:38.496Z,17.26
2024-02-29T09:54:07.339Z,17.22
2024-02-29T09:56:35.720Z,17.17
2024-02-29T09:59:04.542Z,17.14
2024-02-29T10:01:32.484Z,17.07
2024-02-29T10:04:02.839Z,17.05
2024-02-29T10:06:35.706Z,17.02
2024-02-29T10:09:03.816Z,16.99
2024-02-29T10:11:32.586Z,16.96
2024-02-29T10:14:02.170Z,16.95
2024-02-29T10:16:32.109Z,16.90
2024-02-29T10:19:01.636Z,16.91
2024-02-29T10:21:33.910Z,16.92
2024-02-29T10:24:01.764Z,16.94
2024-02-29T10:26:29.722Z,16.94
2024-02-29T10:29:06.131Z,16.90
2024-02-29T10:31:34.156Z,16.88
2024-02-29T10:34:02.082Z,16.87
2024-02-29T10:36:34.803Z,16.87
2024-02-29T10:39:02.928Z,16.90
2024-02-29T10:41:32.801Z,16.90
2024-02-29T10:44:05.338Z,16.90
2024-02-29T10:46:36.963Z,16.87
2024-02-29T10:49:13.195Z,16.81
2024-02-29T10:51:48.028Z,16.78
2024-02-29T10:54:20.822Z,16.77
2024-02-29T10:56:52.622Z,16.76
2024-02-29T10:59:21.002Z,16.75
2024-02-29T11:01:49.655Z,16.74
2024-02-29T11:04:17.917Z,16.72
2024-02-29T11:06:48.875Z,16.70
2024-02-29T11:09:23.241Z,16.69
2024-02-29T11:12:11.862Z,16.74
2024-02-29T11:14:45.477Z,16.77
2024-02-29T11:17:16.982Z,16.78
2024-02-29T11:19:52.005Z,16.75
2024-02-29T11:22:16.799Z,16.70
2024-02-29T11:24:46.751Z,16.66
2024-02-29T11:27:14.658Z,16.66
2024-02-29T11:29:49.091Z,16.67
2024-02-29T11:32:26.899Z,16.65
2024-02-29T11:34:56.320Z,16.68
2024-02-29T11:37:28.137Z,16.68
2024-02-29T11:40:09.060Z,16.67
2024-02-29T11:42:38.909Z,16.66
2024-02-29T11:45:08.587Z,16.64
2024-02-29T11:47:36.626Z,16.65
2024-02-29T11:50:05.016Z,16.63
2024-02-29T11:52:33.150Z,16.62
2024-02-29T11:55:03.901Z,16.61
2024-02-29T11:57:32.034Z,16.62
2024-02-29T12:00:00.611Z,16.63
2024-02-29T12:02:28.802Z,16.65
2024-02-29T12:04:58.881Z,16.65
2024-02-29T12:07:26.800Z,16.66
2024-02-29T12:09:54.948Z,16.64
2024-02-29T12:12:23.057Z,16.63
2024-02-29T12:14:52.234Z,16.63
2024-02-29T12:17:20.513Z,16.63
2024-02-29T12:19:48.255Z,16.60
2024-02-29T12:22:19.578Z,16.57
2024-02-29T12:24:47.458Z,16.54
2024-02-29T12:27:15.815Z,16.52
2024-02-29T12:29:44.241Z,16.49
2024-02-29T12:32:12.086Z,16.48
2024-02-29T12:34:44.802Z,16.47
2024-02-29T12:37:12.859Z,16.47
2024-02-29T12:39:41.099Z,16.45
2024-02-29T12:42:09.065Z,16.44
2024-02-29T12:44:37.568Z,16.43
2024-02-29T12:47:05.512Z,16.38
2024-02-29T12:49:33.367Z,16.38
2024-02-29T12:52:01.248Z,16.31
2024-02-29T12:54:43.997Z,16.29
2024-02-29T12:57:12.266Z,16.28
2024-02-29T12:59:40.839Z,16.26
2024-02-29T13:02:08.792Z,16.21
2024-02-29T13:04:36.993Z,16.15
2024-02-29T13:09:55.865Z,16.05
2024-02-29T13:12:23.988Z,15.97
2024-02-29T13:14:51.692Z,15.93
2024-02-29T13:17:19.436Z,15.89
2024-02-29T13:19:47.871Z,15.84
2024-02-29T13:22:15.974Z,15.82
2024-02-29T13:24:45.726Z,15.80
2024-02-29T13:27:13.764Z,15.78
2024-02-29T13:29:41.635Z,15.77
2024-02-29T13:32:09.571Z,15.75
2024-02-29T13:34:37.761Z,15.75
2024-02-29T13:37:05.992Z,15.74
2024-02-29T13:39:36.509Z,15.72
2024-02-29T13:42:06.154Z,15.69
2024-02-29T13:44:33.870Z,15.66
2024-02-29T13:47:03.601Z,15.65
2024-02-29T13:49:32.082Z,15.63
2024-02-29T13:52:00.013Z,15.62
2024-02-29T13:54:27.787Z,15.60
2024-02-29T13:56:56.666Z,15.60
2024-02-29T13:59:24.941Z,15.58
2024-02-29T14:01:52.969Z,15.56
2024-02-29T14:04:21.405Z,15.55
2024-02-29T14:06:49.434Z,15.50
2024-02-29T14:09:17.579Z,15.47
2024-02-29T14:11:45.452Z,15.43
2024-02-29T14:14:13.535Z,15.42
2024-02-29T14:16:42.088Z,15.40
2024-02-29T14:19:10.497Z,15.38
2024-02-29T14:21:39.420Z,15.35
2024-02-29T14:24:07.287Z,15.32
2024-02-29T14:26:35.214Z,15.28
2024-02-29T14:29:04.147Z,15.26
2024-02-29T14:31:32.034Z,15.21
2024-02-29T14:34:00.584Z,15.11
2024-02-29T14:36:28.582Z,15.12
2024-02-29T14:38:56.443Z,15.07
2024-02-29T14:41:26.000Z,15.01
2024-02-29T14:43:54.005Z,14.97
2024-02-29T14:46:22.468Z,14.91
2024-02-29T14:48:51.572Z,14.86
2024-02-29T14:51:19.604Z,14.81
2024-02-29T14:53:51.582Z,14.76
2024-02-29T14:56:27.621Z,14.72
2024-02-29T14:58:58.422Z,14.65
2024-02-29T15:01:26.809Z,14.57
2024-02-29T15:03:54.838Z,14.53
2024-02-29T15:06:22.863Z,14.48
2024-02-29T15:08:52.079Z,14.43
2024-02-29T15:11:19.937Z,14.38
2024-02-29T15:13:47.776Z,14.33
2024-02-29T15:16:17.148Z,14.27
2024-02-29T15:18:45.245Z,14.22
2024-02-29T15:21:13.323Z,14.17
2024-02-29T15:23:41.432Z,14.10
2024-02-29T15:26:11.284Z,14.04
2024-02-29T15:28:43.979Z,13.98
2024-02-29T15:31:12.197Z,13.91
2024-02-29T15:33:40.081Z,13.82
2024-02-29T15:36:11.520Z,13.76
2024-02-29T15:38:39.847Z,13.70
2024-02-29T15:41:07.709Z,13.61
2024-02-29T15:43:35.722Z,13.55
2024-02-29T15:46:03.885Z,13.48
2024-02-29T15:48:31.846Z,13.41
2024-02-29T15:50:59.830Z,13.31
2024-02-29T15:53:27.757Z,13.22
2024-02-29T15:55:55.657Z,13.13
2024-02-29T15:58:23.835Z,13.02
2024-02-29T16:00:51.858Z,12.92
2024-02-29T16:03:20.095Z,12.83
2024-02-29T16:05:48.181Z,12.74
2024-02-29T16:08:16.036Z,12.64
2024-02-29T16:10:43.980Z,12.55
2024-02-29T16:13:12.100Z,12.46
2024-02-29T16:15:39.977Z,12.39
2024-02-29T16:18:09.656Z,12.32
2024-02-29T16:20:37.416Z,12.24
2024-02-29T16:23:05.376Z,12.13
2024-02-29T16:25:33.286Z,12.04
2024-02-29T16:28:02.971Z,11.94
2024-02-29T16:30:32.064Z,11.83
2024-02-29T16:32:59.758Z,11.71
2024-02-29T16:35:27.995Z,11.60
2024-02-29T16:37:58.461Z,11.51
2024-02-29T16:40:26.061Z,11.41
2024-02-29T16:42:54.645Z,11.33
2024-02-29T16:45:23.637Z,11.22
2024-02-29T16:47:51.749Z,11.17
2024-02-29T16:50:21.250Z,11.12
2024-02-29T16:52:50.885Z,11.06
2024-02-29T16:55:18.846Z,11.03
2024-02-29T16:57:47.191Z,10.98
2024-02-29T17:00:17.753Z,10.93
2024-02-29T17:02:46.066Z,10.87
2024-02-29T17:05:14.400Z,10.83
2024-02-29T17:07:45.313Z,10.78
2024-02-29T17:10:13.820Z,10.73
2024-02-29T17:12:42.697Z,10.68
2024-02-29T17:15:11.314Z,10.65
2024-02-29T17:17:39.422Z,10.59
2024-02-29T17:20:08.668Z,10.55
2024-02-29T17:22:36.733Z,10.50
2024-02-29T17:25:05.552Z,10.46
2024-02-29T17:27:33.319Z,10.39
2024-02-29T17:30:01.090Z,10.32
2024-02-29T17:32:30.962Z,10.25
2024-02-29T17:34:58.856Z,10.19
2024-02-29T17:37:29.301Z,10.14
2024-02-29T17:39:56.667Z,10.07
2024-02-29T17:42:29.085Z,10.00
2024-02-29T17:44:56.889Z,9.96
2024-02-29T17:47:24.875Z,9.90
2024-02-29T17:49:52.853Z,9.83
2024-02-29T17:52:20.784Z,9.76
2024-02-29T17:54:48.810Z,9.73
2024-02-29T17:57:16.954Z,9.69
2024-02-29T17:59:45.115Z,9.64
2024-02-29T18:02:13.122Z,9.58
2024-02-29T18:04:41.121Z,9.52
2024-02-29T18:07:08.998Z,9.46
2024-02-29T18:09:38.760Z,9.41
2024-02-29T18:12:08.298Z,9.35
2024-02-29T18:14:36.300Z,9.28
2024-02-29T18:17:04.518Z,9.21
2024-02-29T18:19:32.420Z,9.14
2024-02-29T18:22:00.485Z,9.08
2024-02-29T18:24:30.759Z,9.01
2024-02-29T18:26:58.669Z,8.94
2024-02-29T18:29:27.715Z,8.89
2024-02-29T18:31:55.925Z,8.85
2024-02-29T18:34:25.951Z,8.79
2024-02-29T18:36:54.286Z,8.74
2024-02-29T18:39:23.565Z,8.70
2024-02-29T18:41:51.768Z,8.65
2024-02-29T18:44:19.652Z,8.60
2024-02-29T18:46:47.542Z,8.58
2024-02-29T18:49:16.025Z,8.55
2024-02-29T18:51:48.826Z,8.50
2024-02-29T18:54:18.491Z,8.46
2024-02-29T18:56:48.231Z,8.43
2024-02-29T18:59:16.932Z,8.39
2024-02-29T19:01:45.537Z,8.34
2024-02-29T19:04:18.486Z,8.32
2024-02-29T19:06:49.160Z,8.29
2024-02-29T19:09:17.561Z,8.26
2024-02-29T19:11:45.591Z,8.22
2024-02-29T19:14:13.532Z,8.21
2024-02-29T19:16:45.280Z,8.19
2024-02-29T19:19:13.513Z,8.17
2024-02-29T19:21:41.553Z,8.14
2024-02-29T19:24:11.415Z,8.09
2024-02-29T19:26:39.438Z,8.03
2024-02-29T19:29:07.255Z,7.97
2024-02-29T19:31:35.024Z,7.91
2024-02-29T19:34:04.703Z,7.87
2024-02-29T19:36:32.867Z,7.82
2024-02-29T19:39:01.872Z,7.78
2024-02-29T19:41:29.850Z,7.75
2024-02-29T19:43:57.951Z,7.74
2024-02-29T19:46:26.126Z,7.74
2024-02-29T19:48:54.929Z,7.73
2024-02-29T19:51:23.152Z,7.73
2024-02-29T19:53:50.960Z,7.75
2024-02-29T19:56:18.979Z,7.74
2024-02-29T19:58:47.077Z,7.73
2024-02-29T20:01:15.033Z,7.71
2024-02-29T20:03:43.156Z,7.71
2024-02-29T20:06:11.523Z,7.70
2024-02-29T20:08:41.636Z,7.69
2024-02-29T20:11:09.826Z,7.67
2024-02-29T20:13:38.151Z,7.63
2024-02-29T20:16:07.552Z,7.61
2024-02-29T20:18:37.338Z,7.58
2024-02-29T20:21:05.885Z,7.57
2024-02-29T20:23:34.578Z,7.55
2024-02-29T20:26:03.120Z,7.55
2024-02-29T20:28:33.356Z,7.53
2024-02-29T20:31:03.439Z,7.53
2024-02-29T20:33:31.492Z,7.54
2024-02-29T20:35:59.426Z,7.51
2024-02-29T20:38:27.272Z,7.51
2024-02-29T20:40:55.289Z,7.50
2024-02-29T20:43:23.402Z,7.50
2024-02-29T20:45:51.807Z,7.49
2024-02-29T20:48:21.869Z,7.49
2024-02-29T20:50:50.374Z,7.49
2024-02-29T20:53:32.055Z,7.47
2024-02-29T20:56:00.830Z,7.46
2024-02-29T20:58:28.881Z,7.44
2024-02-29T21:00:59.498Z,7.43
2024-02-29T21:03:34.540Z,7.41
2024-02-29T21:06:02.460Z,7.37
2024-02-29T21:08:36.751Z,7.32
2024-02-29T21:11:04.993Z,7.32
2024-02-29T21:13:34.342Z,7.28
2024-02-29T21:16:02.524Z,7.25
2024-02-29T21:18:30.509Z,7.20
2024-02-29T21:20:58.443Z,7.15
2024-02-29T21:23:27.493Z,7.12
2024-02-29T21:25:55.358Z,7.08
2024-02-29T21:28:23.438Z,7.05
2024-02-29T21:30:51.845Z,7.03
2024-02-29T21:33:20.865Z,7.01
2024-02-29T21:35:50.954Z,7.02
2024-02-29T21:38:19.058Z,7.01
2024-02-29T21:40:46.870Z,6.96
2024-02-29T21:43:15.002Z,6.95
2024-02-29T21:45:43.512Z,6.91
2024-02-29T21:48:11.357Z,6.89
2024-02-29T21:50:41.262Z,6.85
2024-02-29T21:53:09.190Z,6.81
2024-02-29T21:55:38.397Z,6.79
2024-02-29T21:58:06.971Z,6.78
2024-02-29T22:00:34.996Z,6.78
2024-02-29T22:03:02.794Z,6.76
2024-02-29T22:05:30.663Z,6.76
2024-02-29T22:08:00.325Z,6.74
2024-02-29T22:10:28.521Z,6.75
2024-02-29T22:12:57.316Z,6.76
2024-02-29T22:15:27.494Z,6.78
2024-02-29T22:17:57.710Z,6.78
2024-02-29T22:20:25.142Z,6.79
2024-02-29T22:22:53.366Z,6.79
2024-02-29T22:25:21.525Z,6.81
2024-02-29T22:27:49.609Z,6.82
2024-02-29T22:30:18.335Z,6.81
2024-02-29T22:32:46.315Z,6.83
2024-02-29T22:35:14.468Z,6.81
2024-02-29T22:37:42.441Z,6.81
2024-02-29T22:40:11.069Z,6.83
2024-02-29T22:42:38.845Z,6.85
2024-02-29T22:45:10.299Z,6.88
2024-02-29T22:47:38.399Z,6.91
2024-02-29T22:50:07.171Z,6.94
2024-02-29T22:52:35.487Z,6.96
2024-02-29T22:55:05.920Z,6.96
2024-02-29T22:57:33.934Z,6.98
2024-02-29T23:00:03.927Z,6.98
2024-02-29T23:02:31.868Z,6.98
2024-02-29T23:05:00.301Z,6.99
2024-02-29T23:07:28.235Z,7.01
2024-02-29T23:09:56.740Z,7.03
2024-02-29T23:12:24.742Z,7.04
2024-02-29T23:14:52.631Z,7.06
2024-02-29T23:17:20.553Z,7.06
2024-02-29T23:19:48.444Z,7.07
2024-02-29T23:22:16.398Z,7.11
2024-02-29T23:24:45.606Z,7.12
2024-02-29T23:27:14.553Z,7.14
2024-02-29T23:29:42.519Z,7.15
2024-02-29T23:32:11.951Z,7.16
2024-02-29T23:34:40.565Z,7.15
2024-02-29T23:37:09.953Z,7.15
2024-02-29T23:39:38.275Z,7.13
2024-02-29T23:42:06.370Z,7.12
2024-02-29T23:44:34.256Z,7.10
2024-02-29T23:47:02.203Z,7.08
2024-02-29T23:49:29.977Z,7.07
2024-02-29T23:51:57.933Z,7.04
2024-02-29T23:54:25.798Z,7.03
2024-02-29T23:56:53.777Z,6.99
2024-02-29T23:59:21.787Z,6.96
